sensor_id;sensor_type;location;lat;lon;timestamp;P1;durP1;ratioP1;P2;durP2;ratioP2
5604;SDS011;9297;47.258;11.362;2024-01-15T00:01:42;15.70;;;9.40;;
5604;SDS011;9297;47.258;11.362;2024-01-15T00:04:10;15.60;;;10.30;;
5604;SDS011;9297;47.258;11.362;2024-01-15T00:06:37;16.97;;;10.77;;
5604;SDS011;9297;47.258;11.362;2024-01-15T00:09:05;14.73;;;10.47;;
5604;SDS011;9297;47.258;11.362;2024-01-15T00:11:32;17.20;;;10.83;;
5604;SDS011;9297;47.258;11.362;2024-01-15T00:13:59;16.33;;;9.93;;
5604;SDS011;9297;47.258;11.362;2024-01-15T00:16:26;15.33;;;9.87;;
5604;SDS011;9297;47.258;11.362;2024-01-15T00:18:52;13.87;;;9.80;;
5604;SDS011;9297;47.258;11.362;2024-01-15T00:21:21;15.43;;;10.50;;
5604;SDS011;9297;47.258;11.362;2024-01-15T00:23:48;15.13;;;9.93;;
5604;SDS011;9297;47.258;11.362;2024-01-15T00:26:15;13.90;;;9.50;;
5604;SDS011;9297;47.258;11.362;2024-01-15T00:28:42;13.77;;;8.80;;
5604;SDS011;9297;47.258;11.362;2024-01-15T00:31:09;13.53;;;9.20;;
5604;SDS011;9297;47.258;11.362;2024-01-15T00:33:36;13.93;;;9.43;;
5604;SDS011;9297;47.258;11.362;2024-01-15T00:36:04;15.57;;;10.60;;
5604;SDS011;9297;47.258;11.362;2024-01-15T00:38:32;12.63;;;9.13;;
5604;SDS011;9297;47.258;11.362;2024-01-15T00:40:59;14.00;;;8.87;;
5604;SDS011;9297;47.258;11.362;2024-01-15T00:43:26;13.90;;;10.07;;
5604;SDS011;9297;47.258;11.362;2024-01-15T00:45:53;13.27;;;8.80;;
5604;SDS011;9297;47.258;11.362;2024-01-15T00:48:20;14.57;;;9.80;;
5604;SDS011;9297;47.258;11.362;2024-01-15T00:50:47;15.77;;;9.40;;
5604;SDS011;9297;47.258;11.362;2024-01-15T00:53:14;14.63;;;9.77;;
5604;SDS011;9297;47.258;11.362;2024-01-15T00:55:43;16.63;;;9.87;;
5604;SDS011;9297;47.258;11.362;2024-01-15T00:58:09;13.27;;;9.13;;
5604;SDS011;9297;47.258;11.362;2024-01-15T01:00:36;12.23;;;8.57;;
5604;SDS011;9297;47.258;11.362;2024-01-15T01:03:04;15.73;;;9.13;;
5604;SDS011;9297;47.258;11.362;2024-01-15T01:05:31;15.83;;;9.37;;
5604;SDS011;9297;47.258;11.362;2024-01-15T01:07:58;15.23;;;9.87;;
5604;SDS011;9297;47.258;11.362;2024-01-15T01:10:25;14.13;;;9.27;;
5604;SDS011;9297;47.258;11.362;2024-01-15T01:12:53;16.07;;;9.77;;
5604;SDS011;9297;47.258;11.362;2024-01-15T01:15:20;13.83;;;9.37;;
5604;SDS011;9297;47.258;11.362;2024-01-15T01:17:47;13.60;;;9.30;;
5604;SDS011;9297;47.258;11.362;2024-01-15T01:20:14;12.73;;;9.43;;
5604;SDS011;9297;47.258;11.362;2024-01-15T01:22:44;17.27;;;9.87;;
5604;SDS011;9297;47.258;11.362;2024-01-15T01:25:11;13.97;;;9.70;;
5604;SDS011;9297;47.258;11.362;2024-01-15T01:27:38;16.43;;;10.07;;
5604;SDS011;9297;47.258;11.362;2024-01-15T01:30:07;14.70;;;9.40;;
5604;SDS011;9297;47.258;11.362;2024-01-15T01:32:35;15.73;;;9.97;;
5604;SDS011;9297;47.258;11.362;2024-01-15T01:35:02;15.07;;;9.10;;
5604;SDS011;9297;47.258;11.362;2024-01-15T01:37:29;14.20;;;9.43;;
5604;SDS011;9297;47.258;11.362;2024-01-15T01:39:56;13.90;;;9.57;;
5604;SDS011;9297;47.258;11.362;2024-01-15T01:42:23;12.63;;;8.23;;
5604;SDS011;9297;47.258;11.362;2024-01-15T01:44:50;13.03;;;9.37;;
5604;SDS011;9297;47.258;11.362;2024-01-15T01:47:19;17.07;;;8.93;;
5604;SDS011;9297;47.258;11.362;2024-01-15T01:49:46;11.50;;;7.70;;
5604;SDS011;9297;47.258;11.362;2024-01-15T01:52:13;12.60;;;8.70;;
5604;SDS011;9297;47.258;11.362;2024-01-15T01:54:41;12.43;;;9.23;;
5604;SDS011;9297;47.258;11.362;2024-01-15T01:57:08;10.83;;;8.43;;
5604;SDS011;9297;47.258;11.362;2024-01-15T01:59:37;12.43;;;8.77;;
5604;SDS011;9297;47.258;11.362;2024-01-15T02:02:04;11.77;;;8.40;;
5604;SDS011;9297;47.258;11.362;2024-01-15T02:04:34;13.20;;;8.60;;
5604;SDS011;9297;47.258;11.362;2024-01-15T02:07:02;11.67;;;8.37;;
5604;SDS011;9297;47.258;11.362;2024-01-15T02:09:29;13.53;;;9.03;;
5604;SDS011;9297;47.258;11.362;2024-01-15T02:11:56;10.80;;;9.33;;
5604;SDS011;9297;47.258;11.362;2024-01-15T02:14:23;13.10;;;9.27;;
5604;SDS011;9297;47.258;11.362;2024-01-15T02:16:50;14.87;;;10.57;;
5604;SDS011;9297;47.258;11.362;2024-01-15T02:19:17;12.87;;;9.27;;
5604;SDS011;9297;47.258;11.362;2024-01-15T02:21:46;12.27;;;9.50;;
5604;SDS011;9297;47.258;11.362;2024-01-15T02:24:14;15.03;;;9.63;;
5604;SDS011;9297;47.258;11.362;2024-01-15T02:26:42;20.47;;;9.70;;
5604;SDS011;9297;47.258;11.362;2024-01-15T02:29:09;16.70;;;9.97;;
5604;SDS011;9297;47.258;11.362;2024-01-15T02:31:37;13.93;;;10.20;;
5604;SDS011;9297;47.258;11.362;2024-01-15T02:34:04;15.00;;;10.37;;
5604;SDS011;9297;47.258;11.362;2024-01-15T02:36:32;15.70;;;9.87;;
5604;SDS011;9297;47.258;11.362;2024-01-15T02:38:59;14.07;;;10.63;;
5604;SDS011;9297;47.258;11.362;2024-01-15T02:41:27;15.63;;;11.13;;
5604;SDS011;9297;47.258;11.362;2024-01-15T02:43:54;16.20;;;10.30;;
5604;SDS011;9297;47.258;11.362;2024-01-15T02:46:21;18.80;;;10.30;;
5604;SDS011;9297;47.258;11.362;2024-01-15T02:48:48;15.70;;;10.47;;
5604;SDS011;9297;47.258;11.362;2024-01-15T02:51:15;16.53;;;10.73;;
5604;SDS011;9297;47.258;11.362;2024-01-15T02:53:42;16.07;;;10.00;;
5604;SDS011;9297;47.258;11.362;2024-01-15T02:56:09;15.70;;;9.73;;
5604;SDS011;9297;47.258;11.362;2024-01-15T02:58:37;17.03;;;10.53;;
5604;SDS011;9297;47.258;11.362;2024-01-15T03:01:04;15.67;;;10.63;;
5604;SDS011;9297;47.258;11.362;2024-01-15T03:03:32;19.30;;;11.20;;
5604;SDS011;9297;47.258;11.362;2024-01-15T03:05:59;16.03;;;10.90;;
5604;SDS011;9297;47.258;11.362;2024-01-15T03:08:27;15.20;;;10.33;;
5604;SDS011;9297;47.258;11.362;2024-01-15T03:10:54;15.27;;;10.27;;
5604;SDS011;9297;47.258;11.362;2024-01-15T03:13:21;18.10;;;11.17;;
5604;SDS011;9297;47.258;11.362;2024-01-15T03:15:50;15.50;;;10.43;;
5604;SDS011;9297;47.258;11.362;2024-01-15T03:18:17;16.80;;;10.93;;
5604;SDS011;9297;47.258;11.362;2024-01-15T03:20:44;19.23;;;9.83;;
5604;SDS011;9297;47.258;11.362;2024-01-15T03:23:11;17.33;;;10.27;;
5604;SDS011;9297;47.258;11.362;2024-01-15T03:25:38;15.63;;;10.67;;
5604;SDS011;9297;47.258;11.362;2024-01-15T03:28:05;15.67;;;10.30;;
5604;SDS011;9297;47.258;11.362;2024-01-15T03:30:32;16.93;;;10.53;;
5604;SDS011;9297;47.258;11.362;2024-01-15T03:33:00;15.13;;;10.60;;
5604;SDS011;9297;47.258;11.362;2024-01-15T03:35:27;18.33;;;11.40;;
5604;SDS011;9297;47.258;11.362;2024-01-15T03:37:54;16.37;;;10.27;;
5604;SDS011;9297;47.258;11.362;2024-01-15T03:40:21;15.50;;;10.17;;
5604;SDS011;9297;47.258;11.362;2024-01-15T03:42:49;14.40;;;10.53;;
5604;SDS011;9297;47.258;11.362;2024-01-15T03:45:16;15.73;;;10.20;;
5604;SDS011;9297;47.258;11.362;2024-01-15T03:47:43;15.20;;;10.60;;
5604;SDS011;9297;47.258;11.362;2024-01-15T03:50:11;13.60;;;9.83;;
5604;SDS011;9297;47.258;11.362;2024-01-15T03:52:38;15.43;;;10.53;;
5604;SDS011;9297;47.258;11.362;2024-01-15T03:55:05;17.00;;;11.13;;
5604;SDS011;9297;47.258;11.362;2024-01-15T03:57:33;15.00;;;9.57;;
5604;SDS011;9297;47.258;11.362;2024-01-15T04:00:00;14.63;;;9.93;;
5604;SDS011;9297;47.258;11.362;2024-01-15T04:02:27;13.80;;;10.10;;
5604;SDS011;9297;47.258;11.362;2024-01-15T04:04:54;15.23;;;10.53;;
5604;SDS011;9297;47.258;11.362;2024-01-15T04:07:22;16.40;;;10.47;;
5604;SDS011;9297;47.258;11.362;2024-01-15T04:09:49;16.73;;;11.23;;
5604;SDS011;9297;47.258;11.362;2024-01-15T04:12:16;15.67;;;10.53;;
5604;SDS011;9297;47.258;11.362;2024-01-15T04:14:43;14.83;;;10.33;;
5604;SDS011;9297;47.258;11.362;2024-01-15T04:17:10;14.63;;;10.83;;
5604;SDS011;9297;47.258;11.362;2024-01-15T04:19:37;17.27;;;10.63;;
5604;SDS011;9297;47.258;11.362;2024-01-15T04:22:04;16.80;;;10.60;;
5604;SDS011;9297;47.258;11.362;2024-01-15T04:24:33;15.27;;;10.43;;
5604;SDS011;9297;47.258;11.362;2024-01-15T04:27:00;13.83;;;9.97;;
5604;SDS011;9297;47.258;11.362;2024-01-15T04:29:27;12.20;;;9.90;;
5604;SDS011;9297;47.258;11.362;2024-01-15T04:31:54;14.40;;;10.17;;
5604;SDS011;9297;47.258;11.362;2024-01-15T04:34:21;15.10;;;10.30;;
5604;SDS011;9297;47.258;11.362;2024-01-15T04:36:48;16.17;;;11.10;;
5604;SDS011;9297;47.258;11.362;2024-01-15T04:39:15;16.40;;;10.77;;
5604;SDS011;9297;47.258;11.362;2024-01-15T04:41:43;18.90;;;10.33;;
5604;SDS011;9297;47.258;11.362;2024-01-15T04:44:10;15.13;;;10.53;;
5604;SDS011;9297;47.258;11.362;2024-01-15T04:46:37;16.17;;;10.17;;
5604;SDS011;9297;47.258;11.362;2024-01-15T04:49:04;12.60;;;10.07;;
5604;SDS011;9297;47.258;11.362;2024-01-15T04:51:31;15.27;;;10.23;;
5604;SDS011;9297;47.258;11.362;2024-01-15T04:53:58;15.53;;;10.40;;
5604;SDS011;9297;47.258;11.362;2024-01-15T04:56:25;15.70;;;10.63;;
5604;SDS011;9297;47.258;11.362;2024-01-15T04:58:53;13.67;;;10.07;;
5604;SDS011;9297;47.258;11.362;2024-01-15T05:01:20;17.57;;;10.83;;
5604;SDS011;9297;47.258;11.362;2024-01-15T05:03:47;15.53;;;10.77;;
5604;SDS011;9297;47.258;11.362;2024-01-15T05:06:14;15.50;;;10.57;;
5604;SDS011;9297;47.258;11.362;2024-01-15T05:08:42;16.50;;;11.10;;
5604;SDS011;9297;47.258;11.362;2024-01-15T05:11:08;12.77;;;10.43;;
5604;SDS011;9297;47.258;11.362;2024-01-15T05:13:35;16.43;;;10.60;;
5604;SDS011;9297;47.258;11.362;2024-01-15T05:16:04;15.97;;;11.03;;
5604;SDS011;9297;47.258;11.362;2024-01-15T05:18:31;14.77;;;10.60;;
5604;SDS011;9297;47.258;11.362;2024-01-15T05:20:58;13.27;;;11.13;;
5604;SDS011;9297;47.258;11.362;2024-01-15T05:23:25;17.20;;;11.00;;
5604;SDS011;9297;47.258;11.362;2024-01-15T05:25:52;15.20;;;10.70;;
5604;SDS011;9297;47.258;11.362;2024-01-15T05:28:19;14.87;;;11.17;;
5604;SDS011;9297;47.258;11.362;2024-01-15T05:30:46;14.20;;;10.00;;
5604;SDS011;9297;47.258;11.362;2024-01-15T05:33:15;16.73;;;10.57;;
5604;SDS011;9297;47.258;11.362;2024-01-15T05:35:42;15.83;;;10.13;;
5604;SDS011;9297;47.258;11.362;2024-01-15T05:38:09;18.73;;;10.60;;
5604;SDS011;9297;47.258;11.362;2024-01-15T05:40:36;16.73;;;11.27;;
5604;SDS011;9297;47.258;11.362;2024-01-15T05:43:03;13.07;;;9.77;;
5604;SDS011;9297;47.258;11.362;2024-01-15T05:45:30;15.10;;;10.90;;
5604;SDS011;9297;47.258;11.362;2024-01-15T05:47:57;17.83;;;11.37;;
5604;SDS011;9297;47.258;11.362;2024-01-15T05:50:25;16.47;;;10.83;;
5604;SDS011;9297;47.258;11.362;2024-01-15T05:52:52;15.20;;;10.57;;
5604;SDS011;9297;47.258;11.362;2024-01-15T05:55:19;17.23;;;10.10;;
5604;SDS011;9297;47.258;11.362;2024-01-15T05:57:47;19.77;;;13.53;;
5604;SDS011;9297;47.258;11.362;2024-01-15T06:00:14;13.70;;;11.80;;
5604;SDS011;9297;47.258;11.362;2024-01-15T06:02:42;14.47;;;10.70;;
5604;SDS011;9297;47.258;11.362;2024-01-15T06:05:11;15.10;;;9.40;;
5604;SDS011;9297;47.258;11.362;2024-01-15T06:07:39;15.30;;;10.73;;
5604;SDS011;9297;47.258;11.362;2024-01-15T06:10:06;12.83;;;10.37;;
5604;SDS011;9297;47.258;11.362;2024-01-15T06:12:34;14.93;;;10.87;;
5604;SDS011;9297;47.258;11.362;2024-01-15T06:15:01;18.57;;;12.37;;
5604;SDS011;9297;47.258;11.362;2024-01-15T06:17:28;17.00;;;12.03;;
5604;SDS011;9297;47.258;11.362;2024-01-15T06:19:55;18.77;;;11.00;;
5604;SDS011;9297;47.258;11.362;2024-01-15T06:22:22;17.37;;;11.93;;
5604;SDS011;9297;47.258;11.362;2024-01-15T06:24:51;14.17;;;11.27;;
5604;SDS011;9297;47.258;11.362;2024-01-15T06:27:18;17.27;;;12.37;;
5604;SDS011;9297;47.258;11.362;2024-01-15T06:29:45;17.57;;;12.03;;
5604;SDS011;9297;47.258;11.362;2024-01-15T06:32:16;17.10;;;11.70;;
5604;SDS011;9297;47.258;11.362;2024-01-15T06:34:43;19.03;;;12.80;;
5604;SDS011;9297;47.258;11.362;2024-01-15T06:37:10;17.53;;;11.60;;
5604;SDS011;9297;47.258;11.362;2024-01-15T06:39:37;17.33;;;12.43;;
5604;SDS011;9297;47.258;11.362;2024-01-15T06:42:06;17.27;;;11.43;;
5604;SDS011;9297;47.258;11.362;2024-01-15T06:44:33;18.00;;;12.27;;
5604;SDS011;9297;47.258;11.362;2024-01-15T06:47:00;16.20;;;11.43;;
5604;SDS011;9297;47.258;11.362;2024-01-15T06:49:27;15.33;;;10.33;;
5604;SDS011;9297;47.258;11.362;2024-01-15T06:51:54;14.93;;;10.83;;
5604;SDS011;9297;47.258;11.362;2024-01-15T06:54:21;15.97;;;11.17;;
5604;SDS011;9297;47.258;11.362;2024-01-15T06:56:48;17.63;;;11.27;;
5604;SDS011;9297;47.258;11.362;2024-01-15T06:59:16;16.20;;;11.27;;
5604;SDS011;9297;47.258;11.362;2024-01-15T07:01:45;19.63;;;11.97;;
5604;SDS011;9297;47.258;11.362;2024-01-15T07:04:13;18.07;;;12.13;;
5604;SDS011;9297;47.258;11.362;2024-01-15T07:06:40;14.80;;;10.80;;
5604;SDS011;9297;47.258;11.362;2024-01-15T07:09:07;16.30;;;11.53;;
5604;SDS011;9297;47.258;11.362;2024-01-15T07:11:34;18.07;;;12.43;;
5604;SDS011;9297;47.258;11.362;2024-01-15T07:14:01;17.30;;;12.10;;
5604;SDS011;9297;47.258;11.362;2024-01-15T07:16:29;15.80;;;12.23;;
5604;SDS011;9297;47.258;11.362;2024-01-15T07:19:03;16.87;;;11.00;;
5604;SDS011;9297;47.258;11.362;2024-01-15T07:21:31;15.63;;;11.50;;
5604;SDS011;9297;47.258;11.362;2024-01-15T07:23:58;19.83;;;12.73;;
5604;SDS011;9297;47.258;11.362;2024-01-15T07:26:25;15.87;;;12.10;;
5604;SDS011;9297;47.258;11.362;2024-01-15T07:28:52;16.90;;;12.57;;
5604;SDS011;9297;47.258;11.362;2024-01-15T07:31:19;16.30;;;11.70;;
5604;SDS011;9297;47.258;11.362;2024-01-15T07:33:47;16.27;;;12.27;;
5604;SDS011;9297;47.258;11.362;2024-01-15T07:36:14;16.63;;;12.40;;
5604;SDS011;9297;47.258;11.362;2024-01-15T07:38:41;17.07;;;12.30;;
5604;SDS011;9297;47.258;11.362;2024-01-15T07:41:08;18.27;;;12.90;;
5604;SDS011;9297;47.258;11.362;2024-01-15T07:43:35;17.93;;;12.63;;
5604;SDS011;9297;47.258;11.362;2024-01-15T07:46:02;16.23;;;12.10;;
5604;SDS011;9297;47.258;11.362;2024-01-15T07:48:29;16.10;;;12.77;;
5604;SDS011;9297;47.258;11.362;2024-01-15T07:50:58;15.20;;;11.33;;
5604;SDS011;9297;47.258;11.362;2024-01-15T07:53:25;15.37;;;11.90;;
5604;SDS011;9297;47.258;11.362;2024-01-15T07:55:52;17.23;;;12.57;;
5604;SDS011;9297;47.258;11.362;2024-01-15T07:58:19;15.37;;;10.90;;
5604;SDS011;9297;47.258;11.362;2024-01-15T08:00:46;13.30;;;10.97;;
5604;SDS011;9297;47.258;11.362;2024-01-15T08:03:13;18.13;;;12.30;;
5604;SDS011;9297;47.258;11.362;2024-01-15T08:05:40;15.63;;;12.13;;
5604;SDS011;9297;47.258;11.362;2024-01-15T08:08:08;16.70;;;11.80;;
5604;SDS011;9297;47.258;11.362;2024-01-15T08:10:35;16.40;;;12.53;;
5604;SDS011;9297;47.258;11.362;2024-01-15T08:13:02;15.00;;;12.57;;
5604;SDS011;9297;47.258;11.362;2024-01-15T08:15:30;17.23;;;13.37;;
5604;SDS011;9297;47.258;11.362;2024-01-15T08:17:57;18.53;;;12.13;;
5604;SDS011;9297;47.258;11.362;2024-01-15T08:20:24;17.90;;;13.80;;
5604;SDS011;9297;47.258;11.362;2024-01-15T08:22:52;17.30;;;13.00;;
5604;SDS011;9297;47.258;11.362;2024-01-15T08:25:20;16.17;;;12.33;;
5604;SDS011;9297;47.258;11.362;2024-01-15T08:27:47;15.63;;;12.53;;
5604;SDS011;9297;47.258;11.362;2024-01-15T08:30:14;14.63;;;11.60;;
5604;SDS011;9297;47.258;11.362;2024-01-15T08:32:42;16.33;;;12.03;;
5604;SDS011;9297;47.258;11.362;2024-01-15T08:35:09;13.60;;;10.60;;
5604;SDS011;9297;47.258;11.362;2024-01-15T08:37:37;14.13;;;10.80;;
5604;SDS011;9297;47.258;11.362;2024-01-15T08:40:04;15.07;;;10.63;;
5604;SDS011;9297;47.258;11.362;2024-01-15T08:42:33;16.97;;;11.40;;
5604;SDS011;9297;47.258;11.362;2024-01-15T08:45:00;15.53;;;10.83;;
5604;SDS011;9297;47.258;11.362;2024-01-15T08:47:27;14.63;;;11.30;;
5604;SDS011;9297;47.258;11.362;2024-01-15T08:49:54;13.90;;;11.07;;
5604;SDS011;9297;47.258;11.362;2024-01-15T08:52:21;14.17;;;10.97;;
5604;SDS011;9297;47.258;11.362;2024-01-15T08:54:48;17.63;;;12.17;;
5604;SDS011;9297;47.258;11.362;2024-01-15T08:57:15;14.17;;;11.10;;
5604;SDS011;9297;47.258;11.362;2024-01-15T08:59:43;15.20;;;12.27;;
5604;SDS011;9297;47.258;11.362;2024-01-15T09:02:10;15.43;;;12.13;;
5604;SDS011;9297;47.258;11.362;2024-01-15T09:04:37;18.27;;;12.20;;
5604;SDS011;9297;47.258;11.362;2024-01-15T09:07:04;16.70;;;11.33;;
5604;SDS011;9297;47.258;11.362;2024-01-15T09:09:31;14.60;;;10.43;;
5604;SDS011;9297;47.258;11.362;2024-01-15T09:11:58;14.43;;;11.33;;
5604;SDS011;9297;47.258;11.362;2024-01-15T09:14:25;22.47;;;14.20;;
5604;SDS011;9297;47.258;11.362;2024-01-15T09:17:04;17.27;;;12.03;;
5604;SDS011;9297;47.258;11.362;2024-01-15T09:19:31;18.73;;;11.47;;
5604;SDS011;9297;47.258;11.362;2024-01-15T09:21:59;13.87;;;10.83;;
5604;SDS011;9297;47.258;11.362;2024-01-15T09:24:26;14.77;;;10.97;;
5604;SDS011;9297;47.258;11.362;2024-01-15T09:26:54;14.33;;;10.47;;
5604;SDS011;9297;47.258;11.362;2024-01-15T09:29:22;12.77;;;9.90;;
5604;SDS011;9297;47.258;11.362;2024-01-15T09:31:49;13.17;;;11.00;;
5604;SDS011;9297;47.258;11.362;2024-01-15T09:34:17;15.00;;;10.03;;
5604;SDS011;9297;47.258;11.362;2024-01-15T09:36:45;15.87;;;10.63;;
5604;SDS011;9297;47.258;11.362;2024-01-15T09:39:12;39.37;;;19.43;;
5604;SDS011;9297;47.258;11.362;2024-01-15T09:41:39;18.97;;;11.93;;
5604;SDS011;9297;47.258;11.362;2024-01-15T09:44:06;10.57;;;8.60;;
5604;SDS011;9297;47.258;11.362;2024-01-15T09:46:34;11.53;;;9.10;;
5604;SDS011;9297;47.258;11.362;2024-01-15T09:49:01;13.77;;;9.17;;
5604;SDS011;9297;47.258;11.362;2024-01-15T09:51:31;11.87;;;9.37;;
5604;SDS011;9297;47.258;11.362;2024-01-15T09:53:58;9.73;;;8.27;;
5604;SDS011;9297;47.258;11.362;2024-01-15T09:56:25;9.80;;;7.03;;
5604;SDS011;9297;47.258;11.362;2024-01-15T09:58:52;9.77;;;7.23;;
5604;SDS011;9297;47.258;11.362;2024-01-15T10:01:20;8.53;;;6.83;;
5604;SDS011;9297;47.258;11.362;2024-01-15T10:03:47;8.73;;;6.83;;
5604;SDS011;9297;47.258;11.362;2024-01-15T10:06:14;10.37;;;7.53;;
5604;SDS011;9297;47.258;11.362;2024-01-15T10:08:48;8.27;;;6.50;;
5604;SDS011;9297;47.258;11.362;2024-01-15T10:11:16;9.47;;;6.93;;
5604;SDS011;9297;47.258;11.362;2024-01-15T10:13:43;8.93;;;6.40;;
5604;SDS011;9297;47.258;11.362;2024-01-15T10:16:12;10.93;;;7.47;;
5604;SDS011;9297;47.258;11.362;2024-01-15T10:18:39;10.30;;;7.17;;
5604;SDS011;9297;47.258;11.362;2024-01-15T10:21:06;10.37;;;7.60;;
5604;SDS011;9297;47.258;11.362;2024-01-15T10:23:34;10.43;;;7.10;;
5604;SDS011;9297;47.258;11.362;2024-01-15T10:26:02;12.23;;;7.60;;
5604;SDS011;9297;47.258;11.362;2024-01-15T10:28:30;10.23;;;7.13;;
5604;SDS011;9297;47.258;11.362;2024-01-15T10:30:58;9.83;;;7.40;;
5604;SDS011;9297;47.258;11.362;2024-01-15T10:33:26;9.53;;;7.23;;
5604;SDS011;9297;47.258;11.362;2024-01-15T10:35:54;9.90;;;7.57;;
5604;SDS011;9297;47.258;11.362;2024-01-15T10:38:21;10.90;;;8.00;;
5604;SDS011;9297;47.258;11.362;2024-01-15T10:40:50;9.37;;;7.40;;
5604;SDS011;9297;47.258;11.362;2024-01-15T10:43:19;10.33;;;7.50;;
5604;SDS011;9297;47.258;11.362;2024-01-15T10:45:46;10.47;;;6.87;;
5604;SDS011;9297;47.258;11.362;2024-01-15T10:48:14;12.37;;;7.87;;
5604;SDS011;9297;47.258;11.362;2024-01-15T10:50:42;9.00;;;7.00;;
5604;SDS011;9297;47.258;11.362;2024-01-15T10:53:10;9.53;;;7.47;;
5604;SDS011;9297;47.258;11.362;2024-01-15T10:55:38;10.33;;;7.17;;
5604;SDS011;9297;47.258;11.362;2024-01-15T10:58:05;9.80;;;6.97;;
5604;SDS011;9297;47.258;11.362;2024-01-15T11:00:35;11.57;;;7.60;;
5604;SDS011;9297;47.258;11.362;2024-01-15T11:03:03;14.03;;;9.30;;
5604;SDS011;9297;47.258;11.362;2024-01-15T11:05:32;11.83;;;8.07;;
5604;SDS011;9297;47.258;11.362;2024-01-15T11:08:00;9.10;;;7.50;;
5604;SDS011;9297;47.258;11.362;2024-01-15T11:10:41;10.73;;;7.07;;
5604;SDS011;9297;47.258;11.362;2024-01-15T11:13:09;10.87;;;8.00;;
5604;SDS011;9297;47.258;11.362;2024-01-15T11:15:57;8.30;;;6.50;;
5604;SDS011;9297;47.258;11.362;2024-01-15T11:18:26;9.43;;;6.80;;
5604;SDS011;9297;47.258;11.362;2024-01-15T11:23:46;10.37;;;7.10;;
5604;SDS011;9297;47.258;11.362;2024-01-15T11:26:32;8.07;;;5.53;;
5604;SDS011;9297;47.258;11.362;2024-01-15T11:29:01;10.33;;;6.80;;
5604;SDS011;9297;47.258;11.362;2024-01-15T11:37:24;9.27;;;7.33;;
5604;SDS011;9297;47.258;11.362;2024-01-15T11:39:52;11.73;;;7.13;;
5604;SDS011;9297;47.258;11.362;2024-01-15T11:42:20;11.87;;;8.13;;
5604;SDS011;9297;47.258;11.362;2024-01-15T11:44:49;8.80;;;6.50;;
5604;SDS011;9297;47.258;11.362;2024-01-15T11:47:21;10.13;;;7.73;;
5604;SDS011;9297;47.258;11.362;2024-01-15T11:50:20;7.93;;;5.83;;
5604;SDS011;9297;47.258;11.362;2024-01-15T11:52:49;7.20;;;5.93;;
5604;SDS011;9297;47.258;11.362;2024-01-15T11:55:25;6.67;;;6.03;;
5604;SDS011;9297;47.258;11.362;2024-01-15T11:57:54;9.93;;;7.17;;
5604;SDS011;9297;47.258;11.362;2024-01-15T12:00:21;9.10;;;6.57;;
5604;SDS011;9297;47.258;11.362;2024-01-15T12:02:51;9.67;;;6.27;;
5604;SDS011;9297;47.258;11.362;2024-01-15T12:05:19;8.13;;;5.77;;
5604;SDS011;9297;47.258;11.362;2024-01-15T12:07:47;9.77;;;6.70;;
5604;SDS011;9297;47.258;11.362;2024-01-15T12:10:15;9.77;;;7.07;;
5604;SDS011;9297;47.258;11.362;2024-01-15T12:12:48;8.87;;;5.87;;
5604;SDS011;9297;47.258;11.362;2024-01-15T12:15:23;11.17;;;6.60;;
5604;SDS011;9297;47.258;11.362;2024-01-15T12:17:52;10.70;;;6.83;;
5604;SDS011;9297;47.258;11.362;2024-01-15T12:20:20;9.10;;;6.20;;
5604;SDS011;9297;47.258;11.362;2024-01-15T12:22:48;10.07;;;6.40;;
5604;SDS011;9297;47.258;11.362;2024-01-15T12:25:27;9.07;;;6.33;;
5604;SDS011;9297;47.258;11.362;2024-01-15T12:27:55;7.67;;;5.73;;
5604;SDS011;9297;47.258;11.362;2024-01-15T12:30:23;8.37;;;5.77;;
5604;SDS011;9297;47.258;11.362;2024-01-15T12:32:50;8.43;;;5.30;;
5604;SDS011;9297;47.258;11.362;2024-01-15T12:35:18;10.93;;;6.30;;
5604;SDS011;9297;47.258;11.362;2024-01-15T12:37:46;8.53;;;5.23;;
5604;SDS011;9297;47.258;11.362;2024-01-15T12:40:18;7.13;;;5.13;;
5604;SDS011;9297;47.258;11.362;2024-01-15T12:42:46;8.80;;;5.77;;
5604;SDS011;9297;47.258;11.362;2024-01-15T12:45:13;7.93;;;5.27;;
5604;SDS011;9297;47.258;11.362;2024-01-15T12:47:40;13.33;;;7.53;;
5604;SDS011;9297;47.258;11.362;2024-01-15T12:50:08;11.53;;;5.73;;
5604;SDS011;9297;47.258;11.362;2024-01-15T12:52:46;6.50;;;4.70;;
5604;SDS011;9297;47.258;11.362;2024-01-15T12:55:13;11.23;;;4.50;;
5604;SDS011;9297;47.258;11.362;2024-01-15T12:57:41;4.63;;;3.67;;
5604;SDS011;9297;47.258;11.362;2024-01-15T13:00:09;8.33;;;4.40;;
5604;SDS011;9297;47.258;11.362;2024-01-15T13:02:36;5.03;;;3.70;;
5604;SDS011;9297;47.258;11.362;2024-01-15T13:05:04;7.00;;;4.50;;
5604;SDS011;9297;47.258;11.362;2024-01-15T13:07:32;4.93;;;3.53;;
5604;SDS011;9297;47.258;11.362;2024-01-15T13:10:00;4.57;;;4.00;;
5604;SDS011;9297;47.258;11.362;2024-01-15T13:12:27;6.80;;;5.00;;
5604;SDS011;9297;47.258;11.362;2024-01-15T13:14:54;5.87;;;4.37;;
5604;SDS011;9297;47.258;11.362;2024-01-15T13:17:21;6.80;;;4.90;;
5604;SDS011;9297;47.258;11.362;2024-01-15T13:19:48;6.53;;;4.60;;
5604;SDS011;9297;47.258;11.362;2024-01-15T13:22:15;7.83;;;4.83;;
5604;SDS011;9297;47.258;11.362;2024-01-15T13:24:42;6.17;;;4.50;;
5604;SDS011;9297;47.258;11.362;2024-01-15T13:27:11;7.83;;;4.07;;
5604;SDS011;9297;47.258;11.362;2024-01-15T13:29:38;6.60;;;3.90;;
5604;SDS011;9297;47.258;11.362;2024-01-15T13:32:05;5.90;;;3.40;;
5604;SDS011;9297;47.258;11.362;2024-01-15T13:34:32;3.43;;;3.13;;
5604;SDS011;9297;47.258;11.362;2024-01-15T13:36:59;6.03;;;4.47;;
5604;SDS011;9297;47.258;11.362;2024-01-15T13:39:26;6.37;;;5.30;;
5604;SDS011;9297;47.258;11.362;2024-01-15T13:41:53;5.87;;;3.50;;
5604;SDS011;9297;47.258;11.362;2024-01-15T13:44:21;6.67;;;3.13;;
5604;SDS011;9297;47.258;11.362;2024-01-15T13:46:49;4.93;;;2.97;;
5604;SDS011;9297;47.258;11.362;2024-01-15T13:49:16;4.33;;;3.00;;
5604;SDS011;9297;47.258;11.362;2024-01-15T13:51:43;3.90;;;2.90;;
5604;SDS011;9297;47.258;11.362;2024-01-15T13:54:10;4.57;;;3.27;;
5604;SDS011;9297;47.258;11.362;2024-01-15T13:56:38;3.93;;;2.70;;
5604;SDS011;9297;47.258;11.362;2024-01-15T13:59:05;3.70;;;2.83;;
5604;SDS011;9297;47.258;11.362;2024-01-15T14:01:33;2.80;;;2.60;;
5604;SDS011;9297;47.258;11.362;2024-01-15T14:04:00;2.40;;;2.20;;
5604;SDS011;9297;47.258;11.362;2024-01-15T14:06:27;3.00;;;2.50;;
5604;SDS011;9297;47.258;11.362;2024-01-15T14:08:54;4.23;;;2.60;;
5604;SDS011;9297;47.258;11.362;2024-01-15T14:11:21;3.93;;;2.87;;
5604;SDS011;9297;47.258;11.362;2024-01-15T14:13:48;6.67;;;3.73;;
5604;SDS011;9297;47.258;11.362;2024-01-15T14:16:16;2.57;;;2.37;;
5604;SDS011;9297;47.258;11.362;2024-01-15T14:18:52;2.33;;;2.17;;
5604;SDS011;9297;47.258;11.362;2024-01-15T14:21:20;2.37;;;2.20;;
5604;SDS011;9297;47.258;11.362;2024-01-15T14:23:47;2.50;;;2.30;;
5604;SDS011;9297;47.258;11.362;2024-01-15T14:26:14;3.30;;;3.00;;
5604;SDS011;9297;47.258;11.362;2024-01-15T14:28:43;7.60;;;5.87;;
5604;SDS011;9297;47.258;11.362;2024-01-15T14:31:09;11.27;;;7.27;;
5604;SDS011;9297;47.258;11.362;2024-01-15T14:33:37;6.73;;;4.67;;
5604;SDS011;9297;47.258;11.362;2024-01-15T14:36:07;12.27;;;8.87;;
5604;SDS011;9297;47.258;11.362;2024-01-15T14:38:34;23.07;;;12.50;;
5604;SDS011;9297;47.258;11.362;2024-01-15T14:41:01;43.70;;;22.43;;
5604;SDS011;9297;47.258;11.362;2024-01-15T14:43:28;31.90;;;15.53;;
5604;SDS011;9297;47.258;11.362;2024-01-15T14:45:55;22.80;;;12.27;;
5604;SDS011;9297;47.258;11.362;2024-01-15T14:48:22;20.27;;;9.30;;
5604;SDS011;9297;47.258;11.362;2024-01-15T14:50:49;24.60;;;10.97;;
5604;SDS011;9297;47.258;11.362;2024-01-15T14:53:17;27.20;;;13.97;;
5604;SDS011;9297;47.258;11.362;2024-01-15T14:55:44;26.57;;;13.57;;